sensor_id;sensor_type;location;lat;lon;timestamp;P1;durP1;ratioP1;P2;durP2;ratioP2
78844;SDS011;68195;50.854;2.860;2023-10-31T00:02:12;5.75;;;3.13;;
78844;SDS011;68195;50.854;2.860;2023-10-31T00:04:37;5.60;;;3.08;;
78844;SDS011;68195;50.854;2.860;2023-10-31T00:07:03;5.85;;;3.38;;
78844;SDS011;68195;50.854;2.860;2023-10-31T00:09:28;4.50;;;3.40;;
78844;SDS011;68195;50.854;2.860;2023-10-31T00:11:54;4.50;;;2.90;;
78844;SDS011;68195;50.854;2.860;2023-10-31T00:14:19;6.03;;;2.78;;
78844;SDS011;68195;50.854;2.860;2023-10-31T00:16:44;9.73;;;3.42;;
78844;SDS011;68195;50.854;2.860;2023-10-31T00:19:10;3.50;;;2.72;;
78844;SDS011;68195;50.854;2.860;2023-10-31T00:21:35;6.25;;;3.13;;
78844;SDS011;68195;50.854;2.860;2023-10-31T00:24:03;5.07;;;2.80;;
78844;SDS011;68195;50.854;2.860;2023-10-31T00:26:34;4.88;;;2.85;;
78844;SDS011;68195;50.854;2.860;2023-10-31T00:28:59;3.83;;;2.58;;
78844;SDS011;68195;50.854;2.860;2023-10-31T00:33:52;5.65;;;2.30;;
78844;SDS011;68195;50.854;2.860;2023-10-31T00:36:20;4.57;;;2.67;;
78844;SDS011;68195;50.854;2.860;2023-10-31T00:38:46;2.75;;;1.67;;
78844;SDS011;68195;50.854;2.860;2023-10-31T00:41:13;3.88;;;1.50;;
78844;SDS011;68195;50.854;2.860;2023-10-31T00:43:41;3.75;;;1.60;;
78844;SDS011;68195;50.854;2.860;2023-10-31T00:46:06;1.85;;;1.20;;
78844;SDS011;68195;50.854;2.860;2023-10-31T00:48:32;1.23;;;0.90;;
78844;SDS011;68195;50.854;2.860;2023-10-31T00:51:04;1.67;;;1.02;;
78844;SDS011;68195;50.854;2.860;2023-10-31T00:53:30;2.90;;;1.17;;
78844;SDS011;68195;50.854;2.860;2023-10-31T00:55:56;3.55;;;1.05;;
78844;SDS011;68195;50.854;2.860;2023-10-31T00:58:21;4.45;;;1.20;;
78844;SDS011;68195;50.854;2.860;2023-10-31T01:00:47;1.35;;;0.90;;
78844;SDS011;68195;50.854;2.860;2023-10-31T01:03:12;2.65;;;1.20;;
78844;SDS011;68195;50.854;2.860;2023-10-31T01:05:38;1.83;;;1.10;;
78844;SDS011;68195;50.854;2.860;2023-10-31T01:08:03;2.38;;;1.02;;
78844;SDS011;68195;50.854;2.860;2023-10-31T01:10:28;5.90;;;1.33;;
78844;SDS011;68195;50.854;2.860;2023-10-31T01:12:54;1.15;;;0.93;;
78844;SDS011;68195;50.854;2.860;2023-10-31T01:17:45;1.23;;;0.88;;
78844;SDS011;68195;50.854;2.860;2023-10-31T01:20:10;2.17;;;0.82;;
78844;SDS011;68195;50.854;2.860;2023-10-31T01:22:38;4.38;;;0.82;;
78844;SDS011;68195;50.854;2.860;2023-10-31T01:25:04;1.75;;;0.93;;
78844;SDS011;68195;50.854;2.860;2023-10-31T01:27:29;1.48;;;1.08;;
78844;SDS011;68195;50.854;2.860;2023-10-31T01:29:59;2.58;;;1.02;;
78844;SDS011;68195;50.854;2.860;2023-10-31T01:32:25;0.90;;;0.77;;
78844;SDS011;68195;50.854;2.860;2023-10-31T01:34:51;1.83;;;0.80;;
78844;SDS011;68195;50.854;2.860;2023-10-31T01:37:18;1.85;;;1.05;;
78844;SDS011;68195;50.854;2.860;2023-10-31T01:39:46;1.55;;;1.20;;
78844;SDS011;68195;50.854;2.860;2023-10-31T01:42:16;4.22;;;1.50;;
78844;SDS011;68195;50.854;2.860;2023-10-31T01:44:41;3.75;;;1.42;;
78844;SDS011;68195;50.854;2.860;2023-10-31T01:47:07;2.40;;;1.98;;
78844;SDS011;68195;50.854;2.860;2023-10-31T01:49:35;3.05;;;1.77;;
78844;SDS011;68195;50.854;2.860;2023-10-31T01:52:01;3.03;;;1.95;;
78844;SDS011;68195;50.854;2.860;2023-10-31T01:54:28;2.83;;;2.00;;
78844;SDS011;68195;50.854;2.860;2023-10-31T01:56:55;4.20;;;2.42;;
78844;SDS011;68195;50.854;2.860;2023-10-31T01:59:23;4.38;;;2.80;;
78844;SDS011;68195;50.854;2.860;2023-10-31T02:01:49;3.88;;;2.78;;
78844;SDS011;68195;50.854;2.860;2023-10-31T02:04:17;4.93;;;2.72;;
78844;SDS011;68195;50.854;2.860;2023-10-31T02:06:43;4.03;;;3.08;;
78844;SDS011;68195;50.854;2.860;2023-10-31T02:09:08;4.00;;;2.78;;
78844;SDS011;68195;50.854;2.860;2023-10-31T02:11:37;5.80;;;2.70;;
78844;SDS011;68195;50.854;2.860;2023-10-31T02:14:02;4.07;;;2.95;;
78844;SDS011;68195;50.854;2.860;2023-10-31T02:16:28;4.75;;;3.20;;
78844;SDS011;68195;50.854;2.860;2023-10-31T02:18:53;4.53;;;3.08;;
78844;SDS011;68195;50.854;2.860;2023-10-31T02:21:19;6.32;;;3.08;;
78844;SDS011;68195;50.854;2.860;2023-10-31T02:24:03;12.25;;;5.22;;
78844;SDS011;68195;50.854;2.860;2023-10-31T02:26:33;5.82;;;3.17;;
78844;SDS011;68195;50.854;2.860;2023-10-31T02:28:59;5.88;;;3.42;;
78844;SDS011;68195;50.854;2.860;2023-10-31T02:33:51;5.18;;;3.75;;
78844;SDS011;68195;50.854;2.860;2023-10-31T02:36:17;5.38;;;3.50;;
78844;SDS011;68195;50.854;2.860;2023-10-31T02:38:45;4.40;;;3.42;;
78844;SDS011;68195;50.854;2.860;2023-10-31T02:41:10;4.38;;;3.50;;
78844;SDS011;68195;50.854;2.860;2023-10-31T02:43:41;7.80;;;3.55;;
78844;SDS011;68195;50.854;2.860;2023-10-31T02:46:07;5.20;;;3.75;;
78844;SDS011;68195;50.854;2.860;2023-10-31T02:48:33;5.85;;;3.85;;
78844;SDS011;68195;50.854;2.860;2023-10-31T02:51:04;4.85;;;3.47;;
78844;SDS011;68195;50.854;2.860;2023-10-31T02:55:55;4.80;;;3.40;;
78844;SDS011;68195;50.854;2.860;2023-10-31T02:58:21;6.20;;;4.22;;
78844;SDS011;68195;50.854;2.860;2023-10-31T03:00:46;5.68;;;4.25;;
78844;SDS011;68195;50.854;2.860;2023-10-31T03:03:11;7.35;;;4.00;;
78844;SDS011;68195;50.854;2.860;2023-10-31T03:05:39;8.15;;;4.70;;
78844;SDS011;68195;50.854;2.860;2023-10-31T03:08:05;6.32;;;4.30;;
78844;SDS011;68195;50.854;2.860;2023-10-31T03:10:32;5.75;;;3.97;;
78844;SDS011;68195;50.854;2.860;2023-10-31T03:12:57;7.38;;;4.50;;
78844;SDS011;68195;50.854;2.860;2023-10-31T03:15:24;5.40;;;4.13;;
78844;SDS011;68195;50.854;2.860;2023-10-31T03:17:49;6.80;;;4.40;;
78844;SDS011;68195;50.854;2.860;2023-10-31T03:20:19;6.57;;;4.68;;
78844;SDS011;68195;50.854;2.860;2023-10-31T03:22:47;7.32;;;4.97;;
78844;SDS011;68195;50.854;2.860;2023-10-31T03:25:15;5.70;;;4.65;;
78844;SDS011;68195;50.854;2.860;2023-10-31T03:27:41;7.25;;;5.00;;
78844;SDS011;68195;50.854;2.860;2023-10-31T03:30:06;6.75;;;4.60;;
78844;SDS011;68195;50.854;2.860;2023-10-31T03:32:32;6.40;;;4.70;;
78844;SDS011;68195;50.854;2.860;2023-10-31T03:34:57;7.40;;;4.65;;
78844;SDS011;68195;50.854;2.860;2023-10-31T03:37:25;6.10;;;4.57;;
78844;SDS011;68195;50.854;2.860;2023-10-31T03:39:53;7.38;;;4.75;;
78844;SDS011;68195;50.854;2.860;2023-10-31T03:42:23;7.57;;;5.32;;
78844;SDS011;68195;50.854;2.860;2023-10-31T03:44:51;5.47;;;4.28;;
78844;SDS011;68195;50.854;2.860;2023-10-31T03:47:16;6.00;;;4.90;;
78844;SDS011;68195;50.854;2.860;2023-10-31T03:49:46;8.32;;;5.03;;
78844;SDS011;68195;50.854;2.860;2023-10-31T03:52:12;7.90;;;5.25;;
78844;SDS011;68195;50.854;2.860;2023-10-31T03:54:37;6.75;;;5.30;;
78844;SDS011;68195;50.854;2.860;2023-10-31T03:57:02;7.15;;;4.93;;
78844;SDS011;68195;50.854;2.860;2023-10-31T03:59:30;9.30;;;5.38;;
78844;SDS011;68195;50.854;2.860;2023-10-31T04:01:55;7.68;;;4.88;;
78844;SDS011;68195;50.854;2.860;2023-10-31T04:04:21;7.20;;;4.85;;
78844;SDS011;68195;50.854;2.860;2023-10-31T04:06:46;7.78;;;5.53;;
78844;SDS011;68195;50.854;2.860;2023-10-31T04:09:12;7.20;;;5.15;;
78844;SDS011;68195;50.854;2.860;2023-10-31T04:11:39;7.55;;;5.38;;
78844;SDS011;68195;50.854;2.860;2023-10-31T04:14:06;8.07;;;5.65;;
78844;SDS011;68195;50.854;2.860;2023-10-31T04:16:31;7.60;;;5.47;;
78844;SDS011;68195;50.854;2.860;2023-10-31T04:18:57;7.40;;;5.25;;
78844;SDS011;68195;50.854;2.860;2023-10-31T04:21:24;7.35;;;4.93;;
78844;SDS011;68195;50.854;2.860;2023-10-31T04:23:53;8.43;;;5.10;;
78844;SDS011;68195;50.854;2.860;2023-10-31T04:26:21;7.43;;;5.03;;
78844;SDS011;68195;50.854;2.860;2023-10-31T04:28:46;9.73;;;5.53;;
78844;SDS011;68195;50.854;2.860;2023-10-31T04:31:12;9.80;;;5.30;;
78844;SDS011;68195;50.854;2.860;2023-10-31T04:33:42;7.05;;;4.80;;
78844;SDS011;68195;50.854;2.860;2023-10-31T04:36:07;9.27;;;5.28;;
78844;SDS011;68195;50.854;2.860;2023-10-31T04:38:36;9.10;;;5.05;;
78844;SDS011;68195;50.854;2.860;2023-10-31T04:41:08;6.30;;;5.25;;
78844;SDS011;68195;50.854;2.860;2023-10-31T04:43:37;6.95;;;4.63;;
78844;SDS011;68195;50.854;2.860;2023-10-31T04:46:02;6.47;;;4.90;;
78844;SDS011;68195;50.854;2.860;2023-10-31T04:48:30;7.22;;;4.50;;
78844;SDS011;68195;50.854;2.860;2023-10-31T04:53:24;8.88;;;5.57;;
78844;SDS011;68195;50.854;2.860;2023-10-31T04:55:50;6.25;;;4.90;;
78844;SDS011;68195;50.854;2.860;2023-10-31T04:58:15;7.80;;;5.22;;
78844;SDS011;68195;50.854;2.860;2023-10-31T05:00:40;6.72;;;5.13;;
78844;SDS011;68195;50.854;2.860;2023-10-31T05:03:06;6.88;;;5.10;;
78844;SDS011;68195;50.854;2.860;2023-10-31T05:05:32;6.75;;;4.97;;
78844;SDS011;68195;50.854;2.860;2023-10-31T05:07:57;7.07;;;4.97;;
78844;SDS011;68195;50.854;2.860;2023-10-31T05:10:23;7.93;;;5.05;;
78844;SDS011;68195;50.854;2.860;2023-10-31T05:12:49;11.07;;;5.15;;
78844;SDS011;68195;50.854;2.860;2023-10-31T05:15:15;9.48;;;5.00;;
78844;SDS011;68195;50.854;2.860;2023-10-31T05:17:41;8.70;;;5.63;;
78844;SDS011;68195;50.854;2.860;2023-10-31T05:20:07;8.60;;;5.70;;
78844;SDS011;68195;50.854;2.860;2023-10-31T05:22:34;7.15;;;5.47;;
78844;SDS011;68195;50.854;2.860;2023-10-31T05:24:59;7.32;;;5.40;;
78844;SDS011;68195;50.854;2.860;2023-10-31T05:27:27;7.82;;;5.47;;
78844;SDS011;68195;50.854;2.860;2023-10-31T05:29:55;7.38;;;5.57;;
78844;SDS011;68195;50.854;2.860;2023-10-31T05:32:20;8.15;;;6.53;;
78844;SDS011;68195;50.854;2.860;2023-10-31T05:34:45;7.53;;;5.85;;
78844;SDS011;68195;50.854;2.860;2023-10-31T05:37:11;10.65;;;6.50;;
78844;SDS011;68195;50.854;2.860;2023-10-31T05:39:38;10.43;;;7.20;;
78844;SDS011;68195;50.854;2.860;2023-10-31T05:42:04;8.32;;;5.68;;
78844;SDS011;68195;50.854;2.860;2023-10-31T05:44:31;9.80;;;6.18;;
78844;SDS011;68195;50.854;2.860;2023-10-31T05:47:01;8.25;;;6.50;;
78844;SDS011;68195;50.854;2.860;2023-10-31T05:49:27;7.72;;;5.18;;
78844;SDS011;68195;50.854;2.860;2023-10-31T05:51:52;9.80;;;6.10;;
78844;SDS011;68195;50.854;2.860;2023-10-31T05:54:21;11.68;;;6.82;;
78844;SDS011;68195;50.854;2.860;2023-10-31T05:56:48;8.23;;;5.95;;
78844;SDS011;68195;50.854;2.860;2023-10-31T05:59:14;10.00;;;7.03;;
78844;SDS011;68195;50.854;2.860;2023-10-31T06:01:39;13.18;;;7.43;;
78844;SDS011;68195;50.854;2.860;2023-10-31T06:04:05;10.88;;;7.13;;
78844;SDS011;68195;50.854;2.860;2023-10-31T06:06:31;12.45;;;7.35;;
78844;SDS011;68195;50.854;2.860;2023-10-31T06:08:57;10.48;;;7.10;;
78844;SDS011;68195;50.854;2.860;2023-10-31T06:11:25;10.20;;;7.50;;
78844;SDS011;68195;50.854;2.860;2023-10-31T06:13:51;8.60;;;6.38;;
78844;SDS011;68195;50.854;2.860;2023-10-31T06:16:18;12.10;;;6.50;;
78844;SDS011;68195;50.854;2.860;2023-10-31T06:18:49;10.00;;;6.35;;
78844;SDS011;68195;50.854;2.860;2023-10-31T06:21:14;10.85;;;6.55;;
78844;SDS011;68195;50.854;2.860;2023-10-31T06:23:39;10.10;;;7.50;;
78844;SDS011;68195;50.854;2.860;2023-10-31T06:26:05;13.15;;;6.85;;
78844;SDS011;68195;50.854;2.860;2023-10-31T06:28:30;9.85;;;7.20;;
78844;SDS011;68195;50.854;2.860;2023-10-31T06:31:01;14.55;;;9.20;;
78844;SDS011;68195;50.854;2.860;2023-10-31T06:33:29;11.98;;;7.57;;
78844;SDS011;68195;50.854;2.860;2023-10-31T06:35:57;10.77;;;7.38;;
78844;SDS011;68195;50.854;2.860;2023-10-31T06:38:22;10.80;;;7.70;;
78844;SDS011;68195;50.854;2.860;2023-10-31T06:40:50;10.75;;;7.60;;
78844;SDS011;68195;50.854;2.860;2023-10-31T06:43:15;12.02;;;7.78;;
78844;SDS011;68195;50.854;2.860;2023-10-31T06:45:43;10.93;;;7.03;;
78844;SDS011;68195;50.854;2.860;2023-10-31T06:48:08;13.25;;;7.32;;
78844;SDS011;68195;50.854;2.860;2023-10-31T06:50:34;14.02;;;8.18;;
78844;SDS011;68195;50.854;2.860;2023-10-31T06:52:59;12.52;;;7.43;;
78844;SDS011;68195;50.854;2.860;2023-10-31T06:55:25;11.10;;;6.25;;
78844;SDS011;68195;50.854;2.860;2023-10-31T06:57:50;13.52;;;7.22;;
78844;SDS011;68195;50.854;2.860;2023-10-31T07:00:16;11.32;;;7.22;;
78844;SDS011;68195;50.854;2.860;2023-10-31T07:02:41;10.07;;;6.93;;
78844;SDS011;68195;50.854;2.860;2023-10-31T07:05:07;9.75;;;6.90;;
78844;SDS011;68195;50.854;2.860;2023-10-31T07:07:32;9.93;;;7.25;;
78844;SDS011;68195;50.854;2.860;2023-10-31T07:10:00;9.45;;;7.35;;
78844;SDS011;68195;50.854;2.860;2023-10-31T07:12:25;13.38;;;8.23;;
78844;SDS011;68195;50.854;2.860;2023-10-31T07:14:51;10.02;;;7.13;;
78844;SDS011;68195;50.854;2.860;2023-10-31T07:17:16;10.60;;;7.28;;
78844;SDS011;68195;50.854;2.860;2023-10-31T07:19:44;8.80;;;6.60;;
78844;SDS011;68195;50.854;2.860;2023-10-31T07:22:09;11.52;;;7.20;;
78844;SDS011;68195;50.854;2.860;2023-10-31T07:24:38;9.95;;;6.68;;
78844;SDS011;68195;50.854;2.860;2023-10-31T07:27:03;10.43;;;6.13;;
78844;SDS011;68195;50.854;2.860;2023-10-31T07:29:29;8.65;;;6.22;;
78844;SDS011;68195;50.854;2.860;2023-10-31T07:31:54;8.40;;;5.93;;
78844;SDS011;68195;50.854;2.860;2023-10-31T07:34:19;9.13;;;6.03;;
78844;SDS011;68195;50.854;2.860;2023-10-31T07:36:45;10.30;;;6.10;;
78844;SDS011;68195;50.854;2.860;2023-10-31T07:39:10;7.53;;;5.82;;
78844;SDS011;68195;50.854;2.860;2023-10-31T07:41:37;10.75;;;6.40;;
78844;SDS011;68195;50.854;2.860;2023-10-31T07:44:03;6.85;;;5.45;;
78844;SDS011;68195;50.854;2.860;2023-10-31T07:46:31;10.15;;;5.72;;
78844;SDS011;68195;50.854;2.860;2023-10-31T07:48:57;8.68;;;5.90;;
78844;SDS011;68195;50.854;2.860;2023-10-31T07:51:22;6.75;;;4.70;;
78844;SDS011;68195;50.854;2.860;2023-10-31T07:53:48;6.65;;;5.15;;
78844;SDS011;68195;50.854;2.860;2023-10-31T07:56:17;6.43;;;5.15;;
78844;SDS011;68195;50.854;2.860;2023-10-31T07:58:47;7.47;;;4.88;;
78844;SDS011;68195;50.854;2.860;2023-10-31T08:01:13;5.85;;;4.43;;
78844;SDS011;68195;50.854;2.860;2023-10-31T08:03:39;8.23;;;5.80;;
78844;SDS011;68195;50.854;2.860;2023-10-31T08:06:05;8.88;;;5.05;;
78844;SDS011;68195;50.854;2.860;2023-10-31T08:08:32;7.47;;;5.10;;
78844;SDS011;68195;50.854;2.860;2023-10-31T08:10:58;6.00;;;4.57;;
78844;SDS011;68195;50.854;2.860;2023-10-31T08:13:24;8.25;;;4.97;;
78844;SDS011;68195;50.854;2.860;2023-10-31T08:15:49;7.50;;;5.30;;
78844;SDS011;68195;50.854;2.860;2023-10-31T08:18:15;11.23;;;5.75;;
78844;SDS011;68195;50.854;2.860;2023-10-31T08:20:40;8.63;;;5.03;;
78844;SDS011;68195;50.854;2.860;2023-10-31T08:23:11;7.55;;;5.85;;
78844;SDS011;68195;50.854;2.860;2023-10-31T08:25:36;8.90;;;5.60;;
78844;SDS011;68195;50.854;2.860;2023-10-31T08:28:04;10.60;;;7.18;;
78844;SDS011;68195;50.854;2.860;2023-10-31T08:30:29;10.15;;;6.55;;
78844;SDS011;68195;50.854;2.860;2023-10-31T08:32:55;13.07;;;6.93;;
78844;SDS011;68195;50.854;2.860;2023-10-31T08:35:23;9.57;;;6.25;;
78844;SDS011;68195;50.854;2.860;2023-10-31T08:37:50;12.02;;;7.00;;
78844;SDS011;68195;50.854;2.860;2023-10-31T08:40:16;10.38;;;5.82;;
78844;SDS011;68195;50.854;2.860;2023-10-31T08:42:41;8.65;;;6.15;;
78844;SDS011;68195;50.854;2.860;2023-10-31T08:45:11;7.63;;;5.53;;
78844;SDS011;68195;50.854;2.860;2023-10-31T08:47:36;9.25;;;5.82;;
78844;SDS011;68195;50.854;2.860;2023-10-31T08:50:07;8.73;;;5.80;;
78844;SDS011;68195;50.854;2.860;2023-10-31T08:52:34;11.20;;;5.47;;
78844;SDS011;68195;50.854;2.860;2023-10-31T08:54:59;9.88;;;5.75;;
78844;SDS011;68195;50.854;2.860;2023-10-31T08:57:27;10.20;;;5.78;;
78844;SDS011;68195;50.854;2.860;2023-10-31T08:59:58;10.85;;;6.35;;
78844;SDS011;68195;50.854;2.860;2023-10-31T09:02:24;8.23;;;6.22;;
78844;SDS011;68195;50.854;2.860;2023-10-31T09:04:49;10.02;;;6.25;;
78844;SDS011;68195;50.854;2.860;2023-10-31T09:07:15;9.45;;;6.03;;
78844;SDS011;68195;50.854;2.860;2023-10-31T09:09:42;11.38;;;6.35;;
78844;SDS011;68195;50.854;2.860;2023-10-31T09:12:10;11.20;;;6.97;;
78844;SDS011;68195;50.854;2.860;2023-10-31T09:14:36;11.95;;;6.85;;
78844;SDS011;68195;50.854;2.860;2023-10-31T09:17:02;13.40;;;7.82;;
78844;SDS011;68195;50.854;2.860;2023-10-31T09:19:27;11.82;;;6.72;;
78844;SDS011;68195;50.854;2.860;2023-10-31T09:21:53;11.20;;;7.22;;
78844;SDS011;68195;50.854;2.860;2023-10-31T09:24:22;11.77;;;8.60;;
78844;SDS011;68195;50.854;2.860;2023-10-31T09:26:48;14.63;;;7.65;;
78844;SDS011;68195;50.854;2.860;2023-10-31T09:29:14;10.77;;;6.72;;
78844;SDS011;68195;50.854;2.860;2023-10-31T09:31:40;8.93;;;5.70;;
78844;SDS011;68195;50.854;2.860;2023-10-31T09:34:07;9.55;;;5.57;;
78844;SDS011;68195;50.854;2.860;2023-10-31T09:36:35;8.27;;;6.07;;
78844;SDS011;68195;50.854;2.860;2023-10-31T09:39:01;9.02;;;6.80;;
78844;SDS011;68195;50.854;2.860;2023-10-31T09:41:29;8.30;;;6.65;;
78844;SDS011;68195;50.854;2.860;2023-10-31T09:43:57;11.05;;;6.55;;
78844;SDS011;68195;50.854;2.860;2023-10-31T09:46:25;7.90;;;5.78;;
78844;SDS011;68195;50.854;2.860;2023-10-31T09:48:53;10.68;;;6.28;;
78844;SDS011;68195;50.854;2.860;2023-10-31T09:51:19;8.68;;;5.85;;
78844;SDS011;68195;50.854;2.860;2023-10-31T09:53:46;11.70;;;6.65;;
78844;SDS011;68195;50.854;2.860;2023-10-31T09:56:15;13.85;;;7.15;;
78844;SDS011;68195;50.854;2.860;2023-10-31T09:58:43;10.07;;;6.47;;
78844;SDS011;68195;50.854;2.860;2023-10-31T10:01:08;8.60;;;5.75;;
78844;SDS011;68195;50.854;2.860;2023-10-31T10:03:36;9.00;;;6.32;;
78844;SDS011;68195;50.854;2.860;2023-10-31T10:06:02;11.40;;;6.10;;
78844;SDS011;68195;50.854;2.860;2023-10-31T10:08:27;8.60;;;5.53;;
78844;SDS011;68195;50.854;2.860;2023-10-31T10:10:55;6.82;;;5.82;;
78844;SDS011;68195;50.854;2.860;2023-10-31T10:13:23;8.57;;;5.15;;
78844;SDS011;68195;50.854;2.860;2023-10-31T10:15:51;10.45;;;5.55;;
78844;SDS011;68195;50.854;2.860;2023-10-31T10:18:29;6.78;;;5.18;;
78844;SDS011;68195;50.854;2.860;2023-10-31T10:20:57;5.47;;;4.47;;
78844;SDS011;68195;50.854;2.860;2023-10-31T10:23:24;6.75;;;5.00;;
78844;SDS011;68195;50.854;2.860;2023-10-31T10:25:51;6.88;;;5.00;;
78844;SDS011;68195;50.854;2.860;2023-10-31T10:30:45;8.65;;;5.28;;
78844;SDS011;68195;50.854;2.860;2023-10-31T10:33:12;7.97;;;5.72;;
78844;SDS011;68195;50.854;2.860;2023-10-31T10:35:41;6.95;;;4.43;;
78844;SDS011;68195;50.854;2.860;2023-10-31T10:38:14;6.32;;;4.32;;
78844;SDS011;68195;50.854;2.860;2023-10-31T10:40:42;7.80;;;4.80;;
78844;SDS011;68195;50.854;2.860;2023-10-31T10:45:49;8.70;;;5.40;;
78844;SDS011;68195;50.854;2.860;2023-10-31T10:48:21;7.47;;;4.88;;
78844;SDS011;68195;50.854;2.860;2023-10-31T10:50:48;7.45;;;4.68;;
78844;SDS011;68195;50.854;2.860;2023-10-31T10:53:23;8.35;;;4.80;;
78844;SDS011;68195;50.854;2.860;2023-10-31T10:55:55;8.05;;;4.82;;
78844;SDS011;68195;50.854;2.860;2023-10-31T10:58:44;6.68;;;4.88;;
78844;SDS011;68195;50.854;2.860;2023-10-31T11:01:16;6.53;;;4.93;;
78844;SDS011;68195;50.854;2.860;2023-10-31T11:03:43;7.55;;;4.75;;
78844;SDS011;68195;50.854;2.860;2023-10-31T11:06:10;7.22;;;4.05;;
78844;SDS011;68195;50.854;2.860;2023-10-31T11:08:36;7.50;;;4.53;;
78844;SDS011;68195;50.854;2.860;2023-10-31T11:11:04;6.97;;;4.63;;
78844;SDS011;68195;50.854;2.860;2023-10-31T11:13:32;8.70;;;4.97;;
78844;SDS011;68195;50.854;2.860;2023-10-31T11:15:59;7.57;;;4.72;;
78844;SDS011;68195;50.854;2.860;2023-10-31T11:21:05;8.52;;;4.88;;
78844;SDS011;68195;50.854;2.860;2023-10-31T11:23:31;9.32;;;5.60;;
78844;SDS011;68195;50.854;2.860;2023-10-31T11:25:58;6.50;;;4.50;;
78844;SDS011;68195;50.854;2.860;2023-10-31T11:28:28;6.68;;;4.45;;
78844;SDS011;68195;50.854;2.860;2023-10-31T11:30:57;7.38;;;4.45;;
78844;SDS011;68195;50.854;2.860;2023-10-31T11:33:28;8.65;;;4.50;;
78844;SDS011;68195;50.854;2.860;2023-10-31T11:36:03;6.55;;;4.40;;
78844;SDS011;68195;50.854;2.860;2023-10-31T11:38:35;9.30;;;4.38;;
78844;SDS011;68195;50.854;2.860;2023-10-31T11:41:06;8.65;;;4.63;;
78844;SDS011;68195;50.854;2.860;2023-10-31T11:43:54;10.32;;;4.22;;
78844;SDS011;68195;50.854;2.860;2023-10-31T11:46:20;4.13;;;3.20;;
78844;SDS011;68195;50.854;2.860;2023-10-31T11:48:50;6.28;;;3.40;;
78844;SDS011;68195;50.854;2.860;2023-10-31T11:51:17;6.25;;;4.00;;
78844;SDS011;68195;50.854;2.860;2023-10-31T11:53:43;5.90;;;4.00;;
78844;SDS011;68195;50.854;2.860;2023-10-31T11:56:09;11.68;;;4.18;;
78844;SDS011;68195;50.854;2.860;2023-10-31T11:58:36;6.07;;;3.85;;
78844;SDS011;68195;50.854;2.860;2023-10-31T12:01:05;6.93;;;3.50;;
78844;SDS011;68195;50.854;2.860;2023-10-31T12:03:36;5.75;;;3.10;;
78844;SDS011;68195;50.854;2.860;2023-10-31T12:06:03;4.85;;;3.45;;
78844;SDS011;68195;50.854;2.860;2023-10-31T12:11:05;8.35;;;3.70;;
78844;SDS011;68195;50.854;2.860;2023-10-31T12:13:32;9.48;;;3.67;;
78844;SDS011;68195;50.854;2.860;2023-10-31T12:15:59;4.95;;;3.53;;
78844;SDS011;68195;50.854;2.860;2023-10-31T12:18:28;3.95;;;3.15;;
78844;SDS011;68195;50.854;2.860;2023-10-31T12:20:55;5.28;;;3.10;;
78844;SDS011;68195;50.854;2.860;2023-10-31T12:23:20;5.65;;;3.28;;
78844;SDS011;68195;50.854;2.860;2023-10-31T12:25:51;5.60;;;3.10;;
78844;SDS011;68195;50.854;2.860;2023-10-31T12:28:20;3.92;;;2.70;;
78844;SDS011;68195;50.854;2.860;2023-10-31T12:30:47;5.47;;;2.78;;
78844;SDS011;68195;50.854;2.860;2023-10-31T12:33:17;5.75;;;3.75;;
78844;SDS011;68195;50.854;2.860;2023-10-31T12:35:49;4.13;;;2.88;;
78844;SDS011;68195;50.854;2.860;2023-10-31T12:38:16;4.72;;;2.67;;
78844;SDS011;68195;50.854;2.860;2023-10-31T12:40:45;3.47;;;2.40;;
78844;SDS011;68195;50.854;2.860;2023-10-31T12:43:11;4.72;;;2.33;;
78844;SDS011;68195;50.854;2.860;2023-10-31T12:45:37;4.28;;;2.38;;
78844;SDS011;68195;50.854;2.860;2023-10-31T12:48:03;3.92;;;2.35;;
78844;SDS011;68195;50.854;2.860;2023-10-31T12:50:31;5.30;;;2.25;;
78844;SDS011;68195;50.854;2.860;2023-10-31T12:53:02;5.10;;;2.30;;
78844;SDS011;68195;50.854;2.860;2023-10-31T12:55:28;5.05;;;2.35;;
78844;SDS011;68195;50.854;2.860;2023-10-31T12:57:57;4.97;;;2.58;;
78844;SDS011;68195;50.854;2.860;2023-10-31T13:00:29;3.15;;;2.10;;
78844;SDS011;68195;50.854;2.860;2023-10-31T13:02:59;3.53;;;2.42;;
78844;SDS011;68195;50.854;2.860;2023-10-31T13:05:27;4.90;;;2.53;;
78844;SDS011;68195;50.854;2.860;2023-10-31T13:07:54;5.65;;;2.83;;
78844;SDS011;68195;50.854;2.860;2023-10-31T13:10:25;3.65;;;2.63;;
78844;SDS011;68195;50.854;2.860;2023-10-31T13:12:52;2.92;;;2.00;;
78844;SDS011;68195;50.854;2.860;2023-10-31T13:15:22;6.50;;;2.38;;
78844;SDS011;68195;50.854;2.860;2023-10-31T13:17:48;3.28;;;2.42;;
78844;SDS011;68195;50.854;2.860;2023-10-31T13:20:17;4.28;;;2.50;;
78844;SDS011;68195;50.854;2.860;2023-10-31T13:22:44;6.18;;;2.85;;
78844;SDS011;68195;50.854;2.860;2023-10-31T13:25:11;4.32;;;2.05;;
78844;SDS011;68195;50.854;2.860;2023-10-31T13:27:38;8.95;;;3.15;;
78844;SDS011;68195;50.854;2.860;2023-10-31T13:30:06;3.65;;;2.50;;
78844;SDS011;68195;50.854;2.860;2023-10-31T13:32:32;3.80;;;2.10;;
78844;SDS011;68195;50.854;2.860;2023-10-31T13:34:58;4.53;;;2.70;;
78844;SDS011;68195;50.854;2.860;2023-10-31T13:37:24;6.18;;;3.10;;
78844;SDS011;68195;50.854;2.860;2023-10-31T13:42:16;7.95;;;2.90;;
78844;SDS011;68195;50.854;2.860;2023-10-31T13:47:08;6.40;;;2.60;;
78844;SDS011;68195;50.854;2.860;2023-10-31T13:49:34;4.97;;;2.90;;
78844;SDS011;68195;50.854;2.860;2023-10-31T13:52:05;5.70;;;3.00;;
78844;SDS011;68195;50.854;2.860;2023-10-31T13:54:33;4.85;;;2.97;;
78844;SDS011;68195;50.854;2.860;2023-10-31T13:56:58;4.43;;;2.90;;
78844;SDS011;68195;50.854;2.860;2023-10-31T14:01:54;4.63;;;2.88;;
78844;SDS011;68195;50.854;2.860;2023-10-31T14:04:19;4.43;;;2.67;;
78844;SDS011;68195;50.854;2.860;2023-10-31T14:06:45;4.93;;;2.72;;
78844;SDS011;68195;50.854;2.860;2023-10-31T14:09:13;7.88;;;3.15;;
78844;SDS011;68195;50.854;2.860;2023-10-31T14:11:41;7.80;;;3.13;;
78844;SDS011;68195;50.854;2.860;2023-10-31T14:14:06;5.97;;;3.22;;
78844;SDS011;68195;50.854;2.860;2023-10-31T14:16:34;4.63;;;2.90;;
78844;SDS011;68195;50.854;2.860;2023-10-31T14:19:00;5.93;;;2.97;;
78844;SDS011;68195;50.854;2.860;2023-10-31T14:21:28;6.07;;;2.92;;
78844;SDS011;68195;50.854;2.860;2023-10-31T14:23:54;8.18;;;3.00;;
78844;SDS011;68195;50.854;2.860;2023-10-31T14:28:46;8.48;;;3.25;;
78844;SDS011;68195;50.854;2.860;2023-10-31T14:31:12;6.93;;;3.20;;
78844;SDS011;68195;50.854;2.860;2023-10-31T14:33:40;6.80;;;3.40;;
78844;SDS011;68195;50.854;2.860;2023-10-31T14:36:08;9.18;;;3.35;;
78844;SDS011;68195;50.854;2.860;2023-10-31T14:38:35;8.30;;;3.20;;
78844;SDS011;68195;50.854;2.860;2023-10-31T14:41:01;7.57;;;3.17;;
78844;SDS011;68195;50.854;2.860;2023-10-31T14:43:28;4.50;;;2.67;;
78844;SDS011;68195;50.854;2.860;2023-10-31T14:45:56;6.00;;;2.80;;
78844;SDS011;68195;50.854;2.860;2023-10-31T14:48:24;5.95;;;2.88;;
78844;SDS011;68195;50.854;2.860;2023-10-31T14:50:53;6.53;;;2.60;;
78844;SDS011;68195;50.854;2.860;2023-10-31T14:53:19;6.90;;;2.38;;
78844;SDS011;68195;50.854;2.860;2023-10-31T14:55:46;7.25;;;2.50;;
78844;SDS011;68195;50.854;2.860;2023-10-31T14:58:15;5.70;;;2.78;;
78844;SDS011;68195;50.854;2.860;2023-10-31T15:00:42;4.85;;;2.50;;
78844;SDS011;68195;50.854;2.860;2023-10-31T15:03:10;5.88;;;2.10;;
78844;SDS011;68195;50.854;2.860;2023-10-31T15:05:38;10.32;;;2.63;;
78844;SDS011;68195;50.854;2.860;2023-10-31T15:08:04;6.28;;;2.58;;
78844;SDS011;68195;50.854;2.860;2023-10-31T15:10:33;4.45;;;1.95;;
78844;SDS011;68195;50.854;2.860;2023-10-31T15:13:04;9.10;;;2.10;;
78844;SDS011;68195;50.854;2.860;2023-10-31T15:15:31;6.85;;;2.55;;
78844;SDS011;68195;50.854;2.860;2023-10-31T15:17:57;8.30;;;2.60;;